Time;durP1;ratioP1;P1;durP2;ratioP2;P2;SDS_P1;SDS_P2;PMS_P1;PMS_P2;Temp;Humidity;BMP_temperature;BMP_pressure;BME280_temperature;BME280_humidity;BME280_pressure;Samples;Min_cycle;Max_cycle;Signal;HPM_P1;HPM_P2
2022/12/03 00:02:03;;;;;;;30.70;14.83;;;;;;;;;;6241815;23;20195;-90
2022/12/03 00:04:29;;;;;;;29.42;13.45;;;3.00;99.90;;;;;;6243546;23;20416;-90
2022/12/03 00:06:55;;;;;;;29.27;15.50;;;;;;;;;;6242708;23;20145;-91
2022/12/03 00:09:21;;;;;;;22.50;14.87;;;;;;;;;;6241536;23;20160;-90
2022/12/03 00:11:46;;;;;;;32.55;15.20;;;3.10;99.90;;;;;;6243812;23;20716;-90
2022/12/03 00:14:12;;;;;;;23.37;13.53;;;;;;;;;;6241217;23;20219;-90
2022/12/03 00:16:38;;;;;;;28.67;13.67;;;;;;;;;;6242568;23;20176;-89
2022/12/03 00:19:06;;;;;;;29.43;14.13;;;;;;;;;;6239885;23;20406;-90
2022/12/03 00:21:32;;;;;;;31.05;15.65;;;3.00;99.90;;;;;;6243991;22;20391;-89
2022/12/03 00:23:58;;;;;;;26.17;14.03;;;;;;;;;;6243860;22;20150;-90
2022/12/03 00:26:24;;;;;;;25.77;13.50;;;;;;;;;;6243210;23;20509;-90
2022/12/03 00:28:50;;;;;;;30.23;13.63;;;;;;;;;;6245445;23;20823;-90
2022/12/03 00:31:16;;;;;;;26.00;13.87;;;;;;;;;;6242024;23;20180;-90
2022/12/03 00:33:41;;;;;;;27.60;13.30;;;3.00;99.90;;;;;;6242179;23;20434;-89
2022/12/03 00:36:07;;;;;;;25.60;14.50;;;3.00;99.90;;;;;;6240337;23;20148;-90
2022/12/03 00:38:33;;;;;;;25.13;13.40;;;;;;;;;;6243351;23;20152;-91
2022/12/03 00:40:59;;;;;;;26.97;13.33;;;;;;;;;;6243079;23;20509;-90
2022/12/03 00:43:24;;;;;;;28.67;14.20;;;3.10;99.90;;;;;;6245023;23;20437;-91
2022/12/03 00:45:50;;;;;;;26.70;13.93;;;3.20;99.90;;;;;;6248117;23;21092;-90
2022/12/03 00:48:16;;;;;;;26.57;12.70;;;;;;;;;;6245513;23;20163;-89
2022/12/03 00:50:42;;;;;;;28.40;13.40;;;;;;;;;;6244337;23;20214;-90
2022/12/03 00:53:08;;;;;;;23.40;12.20;;;;;;;;;;6243562;23;20850;-90
2022/12/03 00:55:34;;;;;;;26.20;12.60;;;;;;;;;;6244961;23;20708;-90
2022/12/03 00:58:00;;;;;;;30.27;13.07;;;;;;;;;;6243030;23;21138;-90
2022/12/03 01:00:26;;;;;;;26.50;14.57;;;;;;;;;;6244652;23;20375;-90
2022/12/03 01:02:52;;;;;;;26.63;13.90;;;;;;;;;;6246240;23;20807;-89
2022/12/03 01:05:18;;;;;;;27.88;12.13;;;3.20;99.90;;;;;;6242711;23;20383;-90
2022/12/03 01:07:50;;;;;;;29.35;13.45;;;3.20;99.90;;;;;;6242926;23;20565;-90
2022/12/03 01:10:16;;;;;;;23.83;13.98;;;3.30;99.90;;;;;;6245456;23;20192;-90
2022/12/03 01:12:42;;;;;;;22.80;12.47;;;;;;;;;;6241709;23;20181;-91
2022/12/03 01:15:08;;;;;;;21.87;12.93;;;3.30;99.90;;;;;;6241400;23;20152;-90
2022/12/03 01:17:34;;;;;;;22.90;12.50;;;3.20;99.90;;;;;;6240870;23;20398;-90
2022/12/03 01:20:00;;;;;;;26.60;13.90;;;;;;;;;;6242943;23;20183;-90
2022/12/03 01:22:26;;;;;;;21.52;11.38;;;3.20;99.90;;;;;;6243388;22;20229;-90
2022/12/03 01:24:52;;;;;;;23.83;12.55;;;3.20;99.90;;;;;;6241123;23;20163;-90
2022/12/03 01:27:18;;;;;;;28.33;13.97;;;;;;;;;;6239205;23;20231;-90
2022/12/03 01:29:43;;;;;;;24.13;12.60;;;3.10;99.90;;;;;;6240110;23;20277;-90
2022/12/03 01:32:15;;;;;;;27.57;13.77;;;3.10;99.90;;;;;;6238869;23;20419;-89
2022/12/03 01:34:46;;;;;;;19.77;11.50;;;3.10;99.90;;;;;;6240806;22;20132;-91
2022/12/03 01:37:12;;;;;;;28.40;12.85;;;3.60;99.90;;;;;;6241581;22;20137;-90
2022/12/03 01:39:37;;;;;;;23.33;12.83;;;3.10;99.90;;;;;;6241995;23;20179;-90
2022/12/03 01:42:04;;;;;;;30.13;13.97;;;3.20;99.90;;;;;;6241721;23;20376;-90
2022/12/03 01:44:33;;;;;;;26.25;12.80;;;3.10;99.90;;;;;;6241003;23;20156;-90
2022/12/03 01:47:01;;;;;;;23.90;12.05;;;3.20;99.90;;;;;;6240899;23;20160;-90
2022/12/03 01:49:31;;;;;;;25.75;13.45;;;3.10;99.90;;;;;;6241796;22;20288;-90
2022/12/03 01:51:57;;;;;;;27.02;13.40;;;3.20;99.90;;;;;;6238247;23;20229;-91
2022/12/03 01:54:35;;;;;;;19.85;11.38;;;3.30;99.90;;;;;;6242872;23;20148;-91
2022/12/03 01:57:00;;;;;;;23.85;12.25;;;3.30;99.90;;;;;;6240717;23;20147;-90
2022/12/03 01:59:34;;;;;;;21.10;11.50;;;3.40;99.90;;;;;;6241299;23;20337;-92
2022/12/03 02:02:10;;;;;;;21.95;12.57;;;3.40;99.90;;;;;;6238580;23;20148;-92
2022/12/03 02:04:36;;;;;;;24.02;11.85;;;3.40;99.90;;;;;;6240213;23;20191;-90
2022/12/03 02:07:28;;;;;;;23.30;12.23;;;3.40;99.90;;;;;;6238333;23;20156;-91
2022/12/03 02:09:56;;;;;;;18.20;11.70;;;3.40;99.90;;;;;;6237714;23;20172;-90
2022/12/03 02:12:40;;;;;;;22.90;12.27;;;3.20;99.90;;;;;;6238357;22;20519;-90
2022/12/03 02:15:09;;;;;;;26.33;13.15;;;3.30;99.90;;;;;;6240243;22;20609;-89
2022/12/03 02:17:35;;;;;;;27.80;11.90;;;3.30;99.90;;;;;;6237599;23;20163;-89
2022/12/03 02:20:03;;;;;;;22.13;11.23;;;3.20;99.90;;;;;;6237364;23;20172;-90
2022/12/03 02:23:08;;;;;;;27.70;12.63;;;3.20;99.90;;;;;;6237352;23;21208;-90
2022/12/03 02:25:35;;;;;;;23.77;13.25;;;3.30;99.90;;;;;;6240164;23;20231;-90
2022/12/03 02:28:02;;;;;;;27.70;13.32;;;3.30;99.90;;;;;;6238715;23;20157;-91
2022/12/03 02:30:29;;;;;;;26.02;12.05;;;3.20;99.90;;;;;;6242822;22;20712;-90
2022/12/03 02:32:55;;;;;;;24.20;11.57;;;3.30;99.90;;;;;;6238597;22;20180;-89
2022/12/03 02:35:27;;;;;;;19.70;12.40;;;3.30;99.90;;;;;;6237802;23;20183;-89
2022/12/03 02:38:19;;;;;;;22.30;12.77;;;3.30;99.90;;;;;;6240732;22;20669;-90
2022/12/03 02:40:47;;;;;;;28.48;13.88;;;3.20;99.90;;;;;;6239628;23;20199;-89
2022/12/03 02:43:15;;;;;;;27.73;13.45;;;3.20;99.90;;;;;;6238114;23;20160;-90
2022/12/03 02:45:45;;;;;;;29.80;13.23;;;3.10;99.90;;;;;;6240540;23;20175;-89
2022/12/03 02:48:33;;;;;;;27.55;14.70;;;3.10;99.90;;;;;;6192977;23;20175;-90
2022/12/03 02:51:02;;;;;;;26.15;12.55;;;3.10;99.90;;;;;;6239642;23;20743;-90
2022/12/03 02:53:32;;;;;;;31.45;13.65;;;3.10;99.90;;;;;;6240270;23;20215;-90
2022/12/03 02:56:00;;;;;;;23.80;11.82;;;3.10;99.90;;;;;;6243409;22;20186;-89
2022/12/03 02:58:28;;;;;;;29.80;13.30;;;3.10;99.90;;;;;;6243840;22;20148;-90
2022/12/03 03:00:54;;;;;;;28.27;14.07;;;3.20;99.90;;;;;;6240866;23;20196;-91
2022/12/03 03:03:22;;;;;;;24.23;13.48;;;3.10;99.90;;;;;;6240442;23;20164;-89
2022/12/03 03:05:49;;;;;;;27.95;13.95;;;3.20;99.90;;;;;;6242962;23;20156;-90
2022/12/03 03:08:16;;;;;;;29.08;14.25;;;3.10;99.90;;;;;;6243644;22;20153;-91
2022/12/03 03:10:42;;;;;;;30.58;14.05;;;3.00;99.90;;;;;;6242895;23;20173;-90
2022/12/03 03:13:11;;;;;;;30.17;14.48;;;3.00;99.90;;;;;;6240451;23;20672;-91
2022/12/03 03:15:37;;;;;;;26.25;15.90;;;3.10;99.90;;;;;;6243279;22;20153;-90
2022/12/03 03:18:04;;;;;;;29.70;14.98;;;3.10;99.90;;;;;;6241569;23;20247;-90
2022/12/03 03:20:29;;;;;;;34.65;15.60;;;3.10;99.90;;;;;;6243045;23;20172;-90
2022/12/03 03:23:14;;;;;;;28.87;14.77;;;3.10;99.90;;;;;;6242238;23;20266;-90
2022/12/03 03:25:44;;;;;;;37.90;15.90;;;3.10;99.90;;;;;;6243318;22;20141;-90
2022/12/03 03:28:10;;;;;;;33.08;15.73;;;3.10;99.90;;;;;;6242392;22;20159;-91
2022/12/03 03:30:38;;;;;;;29.63;15.45;;;3.00;99.90;;;;;;6241152;23;20577;-90
2022/12/03 03:33:04;;;;;;;43.50;18.63;;;3.00;99.90;;;;;;6240304;23;20192;-89
2022/12/03 03:35:30;;;;;;;37.10;19.80;;;;;;;;;;6239682;23;20148;-92
2022/12/03 03:37:57;;;;;;;35.78;16.60;;;3.00;99.90;;;;;;6251526;23;20371;-89
2022/12/03 03:40:23;;;;;;;29.50;14.63;;;3.10;99.90;;;;;;6246302;23;20240;-91
2022/12/03 03:42:50;;;;;;;43.22;20.65;;;3.00;99.90;;;;;;6243223;23;20153;-89
2022/12/03 03:45:17;;;;;;;71.20;31.35;;;3.10;99.90;;;;;;6240924;23;20205;-90
2022/12/03 03:47:43;;;;;;;69.32;32.85;;;2.90;99.90;;;;;;6241200;23;20179;-90
2022/12/03 03:50:11;;;;;;;43.25;18.58;;;2.80;99.90;;;;;;6239963;23;20188;-90
2022/12/03 03:52:37;;;;;;;89.32;42.65;;;2.90;99.90;;;;;;6240619;23;20180;-91
2022/12/03 03:55:04;;;;;;;69.97;31.95;;;2.90;99.90;;;;;;6243758;23;20222;-91
2022/12/03 03:57:29;;;;;;;53.13;23.77;;;2.90;99.90;;;;;;6242902;23;20149;-90
2022/12/03 03:59:59;;;;;;;125.87;57.40;;;2.90;99.90;;;;;;6244566;23;20210;-91
2022/12/03 04:02:26;;;;;;;49.65;21.88;;;3.00;99.90;;;;;;6234572;23;20201;-87
2022/12/03 04:04:52;;;;;;;43.70;16.48;;;3.00;99.90;;;;;;6237712;23;20160;-89
2022/12/03 04:07:18;;;;;;;90.53;44.75;;;3.00;99.90;;;;;;6236799;23;20164;-88
2022/12/03 04:09:44;;;;;;;42.83;20.90;;;3.00;99.90;;;;;;6237397;23;20160;-86
2022/12/03 04:14:57;;;;;;;51.47;23.85;;;2.90;99.90;;;;;;6240844;23;20689;-89
2022/12/03 04:17:23;;;;;;;115.03;49.57;;;;;;;;;;6237360;23;20148;-89
2022/12/03 04:19:49;;;;;;;48.53;22.33;;;;;;;;;;6239786;23;20530;-89
2022/12/03 04:30:37;;;;;;;37.88;17.83;;;2.80;99.90;;;;;;6236882;23;20236;-87
2022/12/03 04:35:47;;;;;;;69.43;29.67;;;2.80;99.90;;;;;;6242036;23;20139;-88
2022/12/03 04:38:14;;;;;;;42.20;20.83;;;2.70;99.90;;;;;;6235258;23;20231;-87
2022/12/03 04:40:59;;;;;;;38.67;17.70;;;2.70;99.90;;;;;;6239434;23;20264;-89
2022/12/03 04:44:31;;;;;;;62.13;25.88;;;2.70;99.90;;;;;;6238886;23;20931;-90
2022/12/03 04:46:19;;;;;;;59.88;28.15;;;2.80;99.90;;;;;;6237708;23;20156;-87
2022/12/03 04:48:45;;;;;;;49.93;21.57;;;;;;;;;;6239945;23;20691;-90
2022/12/03 04:51:11;;;;;;;44.53;18.73;;;;;;;;;;6238904;23;20184;-89
2022/12/03 04:53:37;;;;;;;62.78;28.08;;;2.70;99.90;;;;;;6238899;23;20473;-87
2022/12/03 04:56:03;;;;;;;40.97;17.40;;;;;;;;;;6235749;23;20560;-89
2022/12/03 04:58:29;;;;;;;49.67;22.90;;;;;;;;;;6239263;23;20155;-87
2022/12/03 05:00:55;;;;;;;52.60;24.37;;;;;;;;;;6237997;23;20391;-88
2022/12/03 05:03:20;;;;;;;45.90;19.40;;;;;;;;;;6240280;23;20391;-88
2022/12/03 05:05:46;;;;;;;54.43;24.63;;;;;;;;;;6238301;23;20359;-90
2022/12/03 05:08:12;;;;;;;55.00;21.27;;;;;;;;;;6238912;23;21064;-89
2022/12/03 05:10:38;;;;;;;64.70;26.33;;;;;;;;;;6238063;23;20437;-90
2022/12/03 05:13:04;;;;;;;66.53;25.97;;;;;;;;;;6234719;23;20967;-90
2022/12/03 05:15:30;;;;;;;46.50;21.27;;;2.60;99.90;;;;;;6235477;23;20455;-89
2022/12/03 05:17:55;;;;;;;65.50;27.23;;;2.70;99.90;;;;;;6232295;23;20415;-90
2022/12/03 05:23:06;;;;;;;47.28;20.42;;;2.80;99.90;;;;;;6239234;23;20502;-90
2022/12/03 05:25:32;;;;;;;68.60;26.43;;;;;;;;;;6238528;23;20152;-90
2022/12/03 05:27:58;;;;;;;54.67;21.63;;;;;;;;;;6235588;23;20844;-90
2022/12/03 05:30:24;;;;;;;78.50;28.37;;;;;;;;;;6235180;23;20403;-91
2022/12/03 05:32:49;;;;;;;54.95;24.48;;;2.80;99.90;;;;;;6237201;23;20422;-89
2022/12/03 05:35:16;;;;;;;63.20;24.10;;;2.60;99.90;;;;;;6237202;23;20469;-89
2022/12/03 05:37:41;;;;;;;64.82;25.35;;;2.60;99.90;;;;;;6236618;23;20153;-90
2022/12/03 05:40:08;;;;;;;70.40;26.60;;;2.60;99.90;;;;;;6240976;23;20199;-90
2022/12/03 05:45:20;;;;;;;57.08;22.50;;;2.50;99.90;;;;;;6249897;23;20131;-91
2022/12/03 05:47:46;;;;;;;55.45;21.35;;;2.60;99.90;;;;;;6255945;22;20163;-90
2022/12/03 05:50:12;;;;;;;72.57;26.80;;;;;;;;;;6237825;23;20506;-90
2022/12/03 05:52:37;;;;;;;81.63;28.17;;;2.60;99.90;;;;;;6239386;23;20183;-90
2022/12/03 05:55:03;;;;;;;71.10;23.47;;;2.50;99.90;;;;;;6239618;23;20478;-90
2022/12/03 05:57:29;;;;;;;58.00;22.00;;;;;;;;;;6238697;23;20239;-89
2022/12/03 05:59:55;;;;;;;62.77;23.10;;;;;;;;;;6237873;23;20247;-91
2022/12/03 06:02:21;;;;;;;52.73;22.57;;;2.60;99.90;;;;;;6239010;23;20387;-91
2022/12/03 06:04:47;;;;;;;52.50;20.13;;;;;;;;;;6239306;23;20393;-90
2022/12/03 06:07:13;;;;;;;65.13;21.87;;;;;;;;;;6238348;23;20582;-90
2022/12/03 06:09:38;;;;;;;44.23;22.17;;;2.60;99.90;;;;;;6236410;23;20383;-90
2022/12/03 06:12:05;;;;;;;57.10;22.27;;;;;;;;;;6239277;23;20509;-90
2022/12/03 06:14:33;;;;;;;61.03;20.30;;;2.60;99.90;;;;;;6237410;23;20207;-90
2022/12/03 06:16:59;;;;;;;51.38;23.17;;;2.60;99.90;;;;;;6239796;23;20153;-90
2022/12/03 06:19:25;;;;;;;53.20;21.73;;;;;;;;;;6236255;23;20160;-90
2022/12/03 06:21:51;;;;;;;52.73;21.57;;;;;;;;;;6235908;23;20633;-89
2022/12/03 06:24:16;;;;;;;48.70;21.20;;;;;;;;;;6235461;23;20367;-90
2022/12/03 06:26:42;;;;;;;67.03;23.20;;;;;;;;;;6233317;23;20379;-92
2022/12/03 06:29:08;;;;;;;48.87;20.97;;;;;;;;;;6233623;23;20375;-89
2022/12/03 06:31:34;;;;;;;56.03;22.35;;;2.80;99.90;;;;;;6244981;23;20748;-90
2022/12/03 06:34:00;;;;;;;43.83;19.93;;;;;;;;;;6239094;23;20184;-88
2022/12/03 06:36:26;;;;;;;52.23;23.67;;;;;;;;;;6237184;23;20157;-88
2022/12/03 06:38:52;;;;;;;55.83;21.95;;;2.80;99.90;;;;;;6228545;23;20399;-90
2022/12/03 06:41:18;;;;;;;50.25;23.10;;;2.70;99.90;;;;;;6230896;23;20230;-90
2022/12/03 06:43:44;;;;;;;58.10;23.20;;;;;;;;;;6233648;23;20274;-90
2022/12/03 06:46:10;;;;;;;55.60;24.43;;;;;;;;;;6233905;23;20156;-91
2022/12/03 06:48:36;;;;;;;66.60;22.83;;;;;;;;;;6236176;23;20387;-91
2022/12/03 06:51:02;;;;;;;66.33;24.53;;;;;;;;;;6236497;23;20435;-89
2022/12/03 06:53:27;;;;;;;60.57;21.67;;;;;;;;;;6233765;23;20426;-91
2022/12/03 06:55:53;;;;;;;63.43;23.30;;;;;;;;;;6238220;23;20418;-90
2022/12/03 06:58:19;;;;;;;55.50;23.20;;;;;;;;;;6234706;23;20376;-90
2022/12/03 07:00:45;;;;;;;61.07;25.70;;;;;;;;;;6235890;23;20486;-91
2022/12/03 07:03:11;;;;;;;57.40;31.50;;;3.00;99.90;;;;;;6236237;23;20376;-90
2022/12/03 07:05:37;;;;;;;59.33;23.73;;;;;;;;;;6233878;23;20606;-90
2022/12/03 07:08:03;;;;;;;63.53;20.43;;;;;;;;;;6234639;23;20156;-90
2022/12/03 07:10:28;;;;;;;55.42;21.70;;;3.20;99.90;;;;;;6241129;23;20387;-91
2022/12/03 07:12:54;;;;;;;55.63;20.87;;;3.30;99.90;;;;;;6240090;23;20227;-90
2022/12/03 07:15:20;;;;;;;65.00;23.30;;;;;;;;;;6240532;23;20149;-92
2022/12/03 07:17:46;;;;;;;56.47;24.93;;;;;;;;;;6238309;23;20592;-92
2022/12/03 07:20:12;;;;;;;52.17;23.33;;;;;;;;;;6249143;23;20395;-91
2022/12/03 07:22:37;;;;;;;65.68;23.75;;;3.40;99.90;;;;;;6243177;23;20383;-91
2022/12/03 07:25:04;;;;;;;57.83;25.60;;;3.40;99.90;;;;;;6239661;23;20668;-90
2022/12/03 07:27:29;;;;;;;53.30;25.23;;;3.40;99.90;;;;;;6248030;23;20603;-91
2022/12/03 07:29:55;;;;;;;60.20;24.27;;;;;;;;;;6242139;23;20183;-91
2022/12/03 07:32:21;;;;;;;62.03;22.10;;;;;;;;;;6240550;23;20184;-90
2022/12/03 07:34:47;;;;;;;48.17;20.20;;;3.30;99.90;;;;;;6240095;23;20398;-90
2022/12/03 07:37:12;;;;;;;51.23;24.93;;;;;;;;;;6238410;23;20727;-91
2022/12/03 07:39:38;;;;;;;51.93;21.87;;;3.30;99.90;;;;;;6237919;23;20153;-91
2022/12/03 07:42:04;;;;;;;59.97;25.63;;;3.30;99.90;;;;;;6239113;23;20429;-91
2022/12/03 07:44:30;;;;;;;48.17;22.20;;;;;;;;;;6237266;23;20152;-90
2022/12/03 07:46:57;;;;;;;58.65;24.40;;;3.30;99.90;;;;;;6239948;23;20159;-91
2022/12/03 07:49:22;;;;;;;68.30;28.65;;;3.20;99.90;;;;;;6239697;23;20202;-91
2022/12/03 07:51:53;;;;;;;71.53;30.20;;;3.20;99.90;;;;;;6239872;23;20255;-90
2022/12/03 07:54:19;;;;;;;65.03;25.67;;;3.40;99.90;;;;;;6239209;23;20151;-90
2022/12/03 07:56:47;;;;;;;54.85;24.40;;;3.40;99.90;;;;;;6238302;23;20186;-91
2022/12/03 07:59:29;;;;;;;49.85;24.08;;;3.40;99.90;;;;;;6242034;22;20172;-90
2022/12/03 08:01:54;;;;;;;48.75;23.23;;;3.40;99.90;;;;;;6240542;23;20692;-90
2022/12/03 08:04:20;;;;;;;56.17;22.47;;;;;;;;;;6236936;23;20152;-93
2022/12/03 08:06:47;;;;;;;60.10;25.83;;;3.60;99.90;;;;;;6235807;23;20208;-90
2022/12/03 08:09:12;;;;;;;53.80;23.50;;;3.70;99.90;;;;;;6238502;23;20157;-91
2022/12/03 08:11:39;;;;;;;57.00;24.07;;;;;;;;;;6237769;22;20248;-90
2022/12/03 08:14:15;;;;;;;47.88;21.35;;;3.70;99.90;;;;;;6234215;23;20419;-90
2022/12/03 08:16:44;;;;;;;55.05;22.80;;;3.80;99.90;;;;;;6236980;22;20171;-90
2022/12/03 08:19:12;;;;;;;58.85;23.05;;;3.90;99.90;;;;;;6235417;23;20140;-90
2022/12/03 08:21:39;;;;;;;58.10;21.63;;;4.00;99.90;;;;;;6234278;23;20180;-90
2022/12/03 08:24:16;;;;;;;63.30;23.23;;;4.00;99.90;;;;;;6239686;22;20143;-92
2022/12/03 08:26:43;;;;;;;58.75;23.27;;;3.80;99.90;;;;;;6239275;23;20163;-91
2022/12/03 08:29:10;;;;;;;54.92;22.00;;;3.80;99.90;;;;;;6242005;23;20180;-92
2022/12/03 08:31:36;;;;;;;48.70;21.10;;;3.80;99.90;;;;;;6233740;23;20176;-90
2022/12/03 08:34:26;;;;;;;55.73;19.50;;;3.80;99.90;;;;;;6233769;23;20709;-90
2022/12/03 08:37:00;;;;;;;55.03;22.80;;;4.00;99.90;;;;;;6238030;23;20145;-91
2022/12/03 08:39:27;;;;;;;44.30;20.63;;;4.00;99.90;;;;;;6231474;23;20148;-92
2022/12/03 08:45:38;;;;;;;58.13;21.95;;;4.10;99.90;;;;;;6233071;23;20143;-91
2022/12/03 08:48:27;;;;;;;60.65;23.48;;;4.20;99.90;;;;;;6239239;23;20140;-91
2022/12/03 08:50:55;;;;;;;57.55;21.60;;;4.20;99.90;;;;;;6234297;23;20175;-89
2022/12/03 08:53:39;;;;;;;52.17;22.95;;;4.20;99.90;;;;;;6230841;22;20219;-89
2022/12/03 08:56:21;;;;;;;57.65;23.85;;;4.30;99.90;;;;;;6240893;23;20145;-89
2022/12/03 08:58:57;;;;;;;64.45;23.63;;;4.40;99.90;;;;;;6245130;23;20137;-89
2022/12/03 09:01:32;;;;;;;46.95;21.25;;;4.30;99.90;;;;;;6236956;23;20183;-90
2022/12/03 09:04:21;;;;;;;55.83;21.35;;;4.30;99.90;;;;;;6240052;23;20147;-90
2022/12/03 09:06:50;;;;;;;56.33;24.83;;;4.30;99.90;;;;;;6239298;23;20159;-91
2022/12/03 09:09:17;;;;;;;64.20;23.90;;;4.40;99.90;;;;;;6239288;23;20145;-90
2022/12/03 09:11:45;;;;;;;58.10;22.20;;;4.50;99.90;;;;;;6239166;23;20237;-90
2022/12/03 09:14:11;;;;;;;61.20;25.75;;;4.60;99.90;;;;;;6240108;23;20172;-89
2022/12/03 09:16:37;;;;;;;56.83;23.02;;;4.50;99.90;;;;;;6240228;23;20156;-90
2022/12/03 09:19:03;;;;;;;50.10;24.03;;;4.50;99.90;;;;;;6242281;23;20145;-89
2022/12/03 09:21:29;;;;;;;54.72;26.25;;;4.50;99.90;;;;;;6240805;22;20188;-89
2022/12/03 09:23:55;;;;;;;46.87;21.77;;;4.50;99.90;;;;;;6241679;23;20647;-91
2022/12/03 09:26:21;;;;;;;50.90;21.08;;;4.60;99.90;;;;;;6239501;23;20202;-89
2022/12/03 09:28:47;;;;;;;66.67;23.80;;;4.30;99.90;;;;;;6239679;23;20153;-89
2022/12/03 09:31:15;;;;;;;59.35;22.30;;;4.40;99.90;;;;;;6248409;23;20188;-90
2022/12/03 09:33:41;;;;;;;56.35;22.30;;;4.50;99.90;;;;;;6256970;22;20237;-88
2022/12/03 09:36:18;;;;;;;53.78;22.70;;;4.50;99.90;;;;;;6246897;22;20141;-90
2022/12/03 09:38:45;;;;;;;58.85;21.15;;;4.70;99.90;;;;;;6243284;23;20521;-90
2022/12/03 09:41:10;;;;;;;52.28;22.33;;;4.80;99.90;;;;;;6239196;23;20192;-90
2022/12/03 09:43:36;;;;;;;44.27;22.10;;;4.80;99.90;;;;;;6239183;23;20157;-89
2022/12/03 09:46:02;;;;;;;52.90;21.20;;;4.80;99.90;;;;;;6240290;23;20219;-89
2022/12/03 09:48:35;;;;;;;53.83;21.70;;;4.80;99.90;;;;;;6238026;22;20303;-91
2022/12/03 09:51:02;;;;;;;49.05;21.85;;;4.80;99.90;;;;;;6237627;23;20176;-90
2022/12/03 09:53:27;;;;;;;59.08;22.40;;;4.80;99.90;;;;;;6239213;23;20190;-89
2022/12/03 09:55:56;;;;;;;45.80;21.80;;;4.40;99.90;;;;;;6237764;23;20129;-90
2022/12/03 09:58:22;;;;;;;63.10;23.77;;;4.80;99.90;;;;;;6236343;23;20260;-89
2022/12/03 10:00:55;;;;;;;57.00;23.90;;;4.90;99.90;;;;;;6237367;23;20623;-89
2022/12/03 10:03:24;;;;;;;52.92;20.33;;;4.80;99.90;;;;;;6237925;23;20145;-88
2022/12/03 10:05:50;;;;;;;63.72;22.90;;;4.80;99.90;;;;;;6234487;22;20133;-88
2022/12/03 10:08:22;;;;;;;58.55;22.92;;;4.80;99.90;;;;;;6236788;23;20268;-89
2022/12/03 10:10:51;;;;;;;61.20;24.27;;;4.80;99.90;;;;;;6242352;22;20170;-89
2022/12/03 10:13:29;;;;;;;59.42;22.65;;;4.80;99.90;;;;;;6238234;22;20474;-89
2022/12/03 10:15:58;;;;;;;50.83;21.00;;;4.80;99.90;;;;;;6246091;23;20211;-89
2022/12/03 10:18:32;;;;;;;50.97;20.85;;;4.70;99.90;;;;;;6242789;23;20301;-89
2022/12/03 10:21:19;;;;;;;61.95;21.95;;;4.70;99.90;;;;;;6244177;23;20626;-89
2022/12/03 10:24:18;;;;;;;49.40;20.38;;;4.70;99.90;;;;;;6242323;23;20143;-90
2022/12/03 10:26:48;;;;;;;51.35;22.60;;;4.70;99.90;;;;;;6239603;23;20151;-90
2022/12/03 10:29:26;;;;;;;50.20;23.42;;;4.80;99.90;;;;;;6243443;22;20168;-90
2022/12/03 10:32:08;;;;;;;67.43;25.52;;;4.80;99.90;;;;;;6242495;23;20172;-89
2022/12/03 10:35:09;;;;;;;52.65;24.98;;;5.00;99.90;;;;;;6242428;22;20239;-89
2022/12/03 10:38:15;;;;;;;57.45;23.63;;;5.20;99.90;;;;;;6241051;23;20194;-89
2022/12/03 10:40:41;;;;;;;68.80;24.33;;;5.30;99.90;;;;;;6242789;23;20307;-91
2022/12/03 10:43:18;;;;;;;59.47;24.20;;;5.50;99.90;;;;;;6242824;22;20160;-90
2022/12/03 10:45:46;;;;;;;64.10;23.83;;;5.60;99.90;;;;;;6242219;23;20472;-90
2022/12/03 10:48:20;;;;;;;45.70;20.75;;;5.70;99.90;;;;;;6244814;22;20225;-89
2022/12/03 10:51:21;;;;;;;55.85;23.52;;;5.60;99.90;;;;;;6239835;23;20210;-90
2022/12/03 10:53:49;;;;;;;42.35;17.60;;;5.60;99.90;;;;;;6241796;23;20171;-90
2022/12/03 10:56:20;;;;;;;27.50;13.88;;;5.60;99.90;;;;;;6242759;23;20180;-90
2022/12/03 10:58:47;;;;;;;37.33;17.23;;;5.30;99.90;;;;;;6243981;22;20176;-90
2022/12/03 11:01:18;;;;;;;35.90;16.33;;;5.10;99.90;;;;;;6243324;23;20172;-89
2022/12/03 11:04:03;;;;;;;38.03;16.65;;;5.10;99.90;;;;;;6242542;22;20490;-91
2022/12/03 11:06:30;;;;;;;30.33;14.23;;;5.10;99.90;;;;;;6243224;23;20143;-91
2022/12/03 11:08:56;;;;;;;33.70;15.30;;;5.00;99.90;;;;;;6245402;23;20496;-90
2022/12/03 11:11:26;;;;;;;26.50;13.68;;;4.90;99.90;;;;;;6246237;23;20507;-90
2022/12/03 11:14:10;;;;;;;36.00;14.70;;;4.80;99.90;;;;;;6241036;23;20281;-90
2022/12/03 11:16:39;;;;;;;30.17;14.27;;;4.70;99.90;;;;;;6245901;23;20141;-89
2022/12/03 11:19:16;;;;;;;29.90;13.93;;;4.60;99.90;;;;;;6246081;23;20145;-89
2022/12/03 11:22:05;;;;;;;35.35;15.23;;;4.50;99.90;;;;;;6243927;23;20218;-90
2022/12/03 11:24:32;;;;;;;25.58;13.80;;;4.50;99.90;;;;;;6245016;23;20232;-90
2022/12/03 11:26:57;;;;;;;32.88;14.30;;;4.50;99.90;;;;;;6244374;23;20168;-89
2022/12/03 11:29:55;;;;;;;33.50;15.43;;;4.50;99.90;;;;;;6242510;23;20161;-92
2022/12/03 11:32:45;;;;;;;25.42;12.80;;;4.50;99.90;;;;;;6240793;23;20169;-90
2022/12/03 11:35:26;;;;;;;28.88;13.93;;;4.50;99.90;;;;;;6246260;22;20130;-90
2022/12/03 11:38:14;;;;;;;29.45;12.40;;;4.40;99.90;;;;;;6247727;22;20129;-89
2022/12/03 11:40:59;;;;;;;33.95;13.05;;;4.40;99.90;;;;;;6245797;23;20224;-88
2022/12/03 11:43:55;;;;;;;30.10;14.85;;;4.30;99.90;;;;;;6242515;23;20164;-88
2022/12/03 11:46:35;;;;;;;28.60;13.55;;;4.30;99.90;;;;;;6234529;23;20245;-89
2022/12/03 11:49:46;;;;;;;36.55;16.02;;;4.30;99.90;;;;;;6245222;23;20239;-90
2022/12/03 11:52:41;;;;;;;34.03;14.73;;;4.30;99.90;;;;;;6245923;23;20168;-90
2022/12/03 11:55:17;;;;;;;31.42;16.92;;;4.40;99.90;;;;;;6243846;23;20164;-89
2022/12/03 11:57:43;;;;;;;34.67;17.23;;;4.50;99.90;;;;;;6246700;22;20677;-90
2022/12/03 12:00:18;;;;;;;28.17;14.70;;;4.50;99.90;;;;;;6243526;23;20173;-91
2022/12/03 12:02:44;;;;;;;35.70;15.65;;;4.40;99.90;;;;;;6243747;22;20187;-90
2022/12/03 12:05:24;;;;;;;29.60;14.37;;;4.40;99.90;;;;;;6245011;23;20210;-90
2022/12/03 12:07:55;;;;;;;29.15;11.75;;;4.30;99.90;;;;;;6246265;23;20371;-90
2022/12/03 12:10:41;;;;;;;30.63;14.43;;;4.20;99.90;;;;;;6245304;23;20266;-90
2022/12/03 12:13:34;;;;;;;32.00;14.82;;;4.00;99.90;;;;;;6244456;23;20178;-89
2022/12/03 12:16:08;;;;;;;30.17;15.80;;;4.10;99.90;;;;;;6246295;23;20864;-90
2022/12/03 12:18:50;;;;;;;32.90;16.13;;;4.00;99.90;;;;;;6243073;23;20140;-91
2022/12/03 12:21:42;;;;;;;38.17;16.35;;;4.10;99.90;;;;;;6244062;23;20173;-89
2022/12/03 12:24:35;;;;;;;26.52;13.43;;;4.10;99.90;;;;;;6241769;23;20145;-89
2022/12/03 12:27:11;;;;;;;34.17;14.05;;;4.10;99.90;;;;;;6241985;23;20602;-90
2022/12/03 12:29:39;;;;;;;34.38;16.55;;;4.10;99.90;;;;;;6242920;23;20191;-89
2022/12/03 12:32:08;;;;;;;25.83;12.45;;;4.10;99.90;;;;;;6242712;23;20152;-90
2022/12/03 12:34:36;;;;;;;40.97;16.75;;;4.10;99.90;;;;;;6241690;23;20152;-91
2022/12/03 12:37:32;;;;;;;30.50;13.55;;;4.10;99.90;;;;;;6242409;23;20148;-90
2022/12/03 12:39:59;;;;;;;35.78;16.02;;;4.00;99.90;;;;;;6246161;22;20187;-89
2022/12/03 12:42:41;;;;;;;36.47;16.48;;;3.90;99.90;;;;;;6240428;23;20156;-89
2022/12/03 12:45:07;;;;;;;33.88;16.95;;;3.90;99.90;;;;;;6241471;22;20291;-90
2022/12/03 12:47:45;;;;;;;31.47;15.90;;;3.90;99.90;;;;;;6238931;23;20563;-91
2022/12/03 12:50:17;;;;;;;25.98;13.55;;;3.80;99.90;;;;;;6242332;23;20618;-90
2022/12/03 12:52:50;;;;;;;31.50;14.65;;;3.90;99.90;;;;;;6238832;23;20279;-90
2022/12/03 12:55:21;;;;;;;33.67;15.68;;;3.80;99.90;;;;;;6240753;23;20250;-90
2022/12/03 12:57:58;;;;;;;37.95;16.13;;;3.90;99.90;;;;;;6239570;23;20144;-91
2022/12/03 13:00:27;;;;;;;39.17;16.75;;;3.90;99.90;;;;;;6241761;22;20164;-90
2022/12/03 13:03:05;;;;;;;43.38;19.58;;;3.90;99.90;;;;;;6242104;23;20144;-89
2022/12/03 13:05:38;;;;;;;39.72;17.38;;;4.00;99.90;;;;;;6238006;23;20198;-90
2022/12/03 13:08:28;;;;;;;39.47;16.85;;;4.10;99.90;;;;;;6241088;23;20156;-90
2022/12/03 13:10:56;;;;;;;32.08;17.15;;;4.10;99.90;;;;;;6242500;23;20210;-90
2022/12/03 13:13:38;;;;;;;38.42;17.83;;;4.10;99.90;;;;;;6241919;23;20176;-90
2022/12/03 13:16:10;;;;;;;36.17;17.90;;;4.10;99.90;;;;;;6243664;23;20145;-90
2022/12/03 13:19:00;;;;;;;38.53;14.82;;;4.10;99.90;;;;;;6251509;23;20153;-91
2022/12/03 13:21:39;;;;;;;36.40;17.00;;;4.10;99.90;;;;;;6222870;23;20179;-90
2022/12/03 13:24:37;;;;;;;33.67;17.23;;;4.00;99.90;;;;;;6242650;23;20149;-91
2022/12/03 13:27:36;;;;;;;35.90;14.82;;;3.90;99.90;;;;;;6241108;23;20552;-90
2022/12/03 13:33:00;;;;;;;41.25;20.33;;;;;;;;;;6213895;23;20201;-91
2022/12/03 13:35:34;;;;;;;37.00;16.92;;;3.80;99.90;;;;;;6210668;23;20164;-90
2022/12/03 13:38:01;;;;;;;42.25;19.95;;;3.70;99.90;;;;;;6211079;23;20192;-90
2022/12/03 13:40:34;;;;;;;131.05;47.67;;;3.60;99.90;;;;;;6211722;23;20255;-89
2022/12/03 13:43:03;;;;;;;26.45;14.25;;;3.70;99.90;;;;;;6213199;23;21037;-90